Alderpoint, California
Current Conditions -  °F | °C
As of 9:10 PM on Sunday 19 Oct 2014 (Local Time) from KFOT Reporting Station
Overcast Overcast  
Wind Chill: 64°   Ceiling: 2800
Heat Index: 64°   Visibility: 10mi
Dew Point: 55°   Wind: 14mph
Humidity: 73%   Direction: 120°ESE
Pressure: 29.82"   Gusts: 20mph
Location:  40.18°N, 123.61°W
Report Text: KFOT 200410Z AUTO 12012G17KT 10SM BKN028 OVC035 18/13 A2982 RMK AO1
Loading
Personal Weather Stations






























Interactive Weather Map New forecast layout! Learn more

10-Day Weather Forecast

Advertisements
Track Severe Weather on mobile